EGLC Airport Information

Runway Information
Runway 10 Length 4948 ft width 98 ft
Elevation 16 ft Threshold 358 ft Heading 93
Runway 28 Length 4948 ft Width 98 ft
Elevation 19 ft Threshold 211 ft Heading 273
Airport Frequencies
Type APP Name APP Frequency 132.7 MHZ
Type ATIS Name ATIS Frequency 136.35 MHZ
Type GND Name GND Frequency 121.825 MHZ
Type TWR Name TWR Frequency 118.075 MHZ
Airport Navaids
Type NDB Name City Frequency 322 KHZ
Airport Weather Information & NOTAM

Deprecated: The each() function is deprecated. This message will be suppressed on further calls in /home/customer/www/peakairlines.org/public_html/lib/functions.php on line 141
ADDS - METARS form results

(2006 UTC 20 September 2020)
Data provider http://aviationweather.gov/metar/data/
 
METAR text: EGLC 201950Z AUTO 07008KT 9999 NCD 19/10 Q1019
Conditions at: EGLC (LONDON CITY AIRP, GB) observed 1950 UTC 20 September 2020
Temperature: 19.0°C (66°F)
Dewpoint: 10.0°C (50°F) [RH = 56%]
Pressure (altimeter): 30.09 inches Hg (1019.0 mb)
Winds: from the ENE (70 degrees) at 9 MPH (8 knots; 4.1 m/s)
Visibility: 6 or more miles (10+ km)
Ceiling: at least 12,000 feet AGL
Clouds: sky clear below 12,000 feet AGL
Weather: no significant weather observed at this time

METAR text: EGLC 201920Z AUTO 08009KT 9999 NCD 19/11 Q1019
Conditions at: EGLC (LONDON CITY AIRP, GB) observed 1920 UTC 20 September 2020
Temperature: 19.0°C (66°F)
Dewpoint: 11.0°C (52°F) [RH = 60%]
Pressure (altimeter): 30.09 inches Hg (1019.0 mb)
Winds: from the E (80 degrees) at 10 MPH (9 knots; 4.6 m/s)
Visibility: 6 or more miles (10+ km)
Ceiling: at least 12,000 feet AGL
Clouds: sky clear below 12,000 feet AGL
Weather: no significant weather observed at this time

Forecast for: EGLC (LONDON CITY AIRP, GB)
Text: TAF EGLC 201701Z 2018/2021 07008KT CAVOK
Forecast period: 1800 to 2100 UTC 20 September 2020
Forecast type: FROM: standard forecast or significant change
Winds: from the ENE (70 degrees) at 9 MPH (8 knots; 4.1 m/s)
Visibility: 6 or more miles (10+ km)
Ceiling: unknown
Clouds: missing
Weather: NSW  (no significant weather)